Data for 02/11/2008

Time Sea-Level Adjusted Pressure Absolute Pressure Temperature Relative Humidity Dew Point   
(mb) (inHg) (mb) (inHg) (C) (F) (%) (C) (F)
00:05 1012 29.88 841 24.83 0.1 32.2 96 -0.4 31.3
00:10 1013 29.91 842 24.86 -0.2 31.7 98 -0.5 31
00:15 1013 29.91 842 24.86 -0.2 31.6 97 -0.6 30.9
00:20 1013 29.91 842 24.86 -0.3 31.4 98 -0.7 30.8
00:25 1013 29.91 842 24.86 -0.5 31.1 98 -0.7 30.7
00:30 1013 29.91 843 24.89 -0.6 30.9 99 -0.7 30.7
00:35 1013 29.91 843 24.89 -0.6 30.9 99 -0.8 30.6
00:40 1014 29.94 843 24.89 -0.6 31 98 -0.9 30.5
00:45 1014 29.94 843 24.89 -0.5 31 97 -0.9 30.3
00:50 1014 29.94 843 24.89 -0.5 31.2 97 -0.9 30.3
00:55 1014 29.94 843 24.89 -0.5 31 96 -1 30.1
01:00 1014 29.94 843 24.89 -0.5 31.1 94 -1.4 29.6
01:05 1014 29.94 843 24.89 -0.4 31.2 92 -1.6 29.1
01:10 1014 29.94 843 24.89 -0.3 31.4 90 -1.8 28.8
01:15 1014 29.94 843 24.89 -0.3 31.4 88 -2 28.3
01:20 1014 29.94 843 24.89 -0.3 31.5 87 -2.2 28
01:25 1014 29.94 843 24.89 -0.2 31.6 87 -2.1 28.2
01:30 1014 29.94 843 24.89 -0.3 31.4 87 -2.3 27.9
01:35 1014 29.94 843 24.89 -0.4 31.3 85 -2.6 27.4
01:40 1014 29.94 843 24.89 -0.4 31.2 85 -2.7 27.2
01:45 1014 29.94 844 24.92 -0.4 31.2 84 -2.8 26.9
01:50 1014 29.94 844 24.92 -0.5 31.1 84 -2.8 26.9
01:55 1015 29.97 844 24.92 -0.6 31 84 -2.9 26.8
02:00 1015 29.97 844 24.92 -0.7 30.7 85 -3 26.6
02:05 1015 29.97 844 24.92 -0.8 30.6 85 -2.9 26.7
02:10 1015 29.97 844 24.92 -0.9 30.4 87 -2.9 26.9
02:15 1015 29.97 844 24.92 -1 30.2 85 -3.1 26.3
02:20 1015 29.97 844 24.92 -1.2 29.9 84 -3.5 25.7
02:25 1015 29.97 845 24.95 -1.3 29.7 86 -3.4 25.9
02:30 1015 29.97 845 24.95 -1.5 29.3 87 -3.4 25.8
02:35 1015 29.97 845 24.95 -1.6 29.1 87 -3.5 25.8
02:40 1015 29.97 845 24.95 -1.7 28.9 87 -3.6 25.5
02:45 1015 29.97 845 24.95 -1.7 28.9 87 -3.7 25.4
02:50 1016 30 845 24.95 -1.8 28.7 87 -3.7 25.3
02:55 1016 30 845 24.95 -1.9 28.5 88 -3.7 25.4
03:00 1016 30 845 24.95 -2 28.3 88 -3.7 25.3
03:05 1016 30 845 24.95 -2.1 28.3 88 -3.8 25.2
03:10 1016 30 845 24.95 -2.1 28.2 89 -3.7 25.3
03:15 1016 30 845 24.95 -2.1 28.3 88 -3.8 25.2
03:20 1016 30 845 24.95 -2 28.4 87 -3.8 25.1
03:25 1016 30 845 24.95 -1.8 28.7 87 -3.8 25.2
03:30 1016 30 845 24.95 -1.8 28.7 87 -3.8 25.2
03:35 1016 30 845 24.95 -1.8 28.7 87 -3.8 25.2
03:40 1016 30 845 24.95 -2 28.4 87 -3.8 25.1
03:45 1016 30 845 24.95 -2.4 27.7 88 -4.1 24.7
03:50 1016 30 845 24.95 -2.6 27.3 89 -4.2 24.5
03:55 1016 30 845 24.95 -2.4 27.6 88 -4.1 24.6
04:00 1016 30 845 24.95 -2.4 27.6 88 -4.2 24.5
04:05 1016 30 845 24.95 -2.8 27 89 -4.3 24.2
04:10 1016 30 846 24.98 -2.8 26.9 89 -4.3 24.2
04:15 1016 30 846 24.98 -2.7 27.1 89 -4.3 24.2
04:20 1016 30 846 24.98 -2.4 27.7 88 -4.2 24.5
04:25 1016 30 846 24.98 -2.3 27.9 88 -4 24.7
04:30 1016 30 846 24.98 -2.1 28.2 87 -4 24.8
04:35 1016 30 846 24.98 -2 28.4 87 -3.9 25
04:40 1016 30 846 24.98 -2 28.5 86 -4.1 24.7
04:45 1016 30 846 24.98 -1.9 28.6 84 -4.2 24.4
04:50 1016 30 846 24.98 -1.6 29.1 79 -4.8 23.4
04:55 1016 30 846 24.98 -1.4 29.4 77 -4.9 23.1
05:00 1017 30.03 846 24.98 -1.2 29.8 76 -4.9 23.2
05:05 1017 30.03 846 24.98 -1.2 29.8 75 -5.2 22.7
05:10 1017 30.03 846 24.98 -1.1 30 74 -5.2 22.6
05:15 1017 30.03 846 24.98 -1 30.1 73 -5.2 22.6
05:20 1017 30.03 846 24.98 -1.1 30.1 73 -5.2 22.6
05:25 1017 30.03 846 24.98 -1.1 30 73 -5.3 22.5
05:30 1017 30.03 846 24.98 -1 30.2 72 -5.4 22.4
05:35 1017 30.03 846 24.98 -1.3 29.7 75 -5.1 22.8
05:40 1017 30.03 846 24.98 -1.3 29.7 74 -5.3 22.4
05:45 1017 30.03 846 24.98 -1.1 30 74 -5.2 22.6
05:50 1017 30.03 846 24.98 -1 30.2 74 -5.1 22.8
05:55 1017 30.03 846 24.98 -1.1 30 74 -5.1 22.7
06:00 1017 30.03 846 24.98 -1.1 30 74 -5.2 22.6
06:05 1017 30.03 846 24.98 -1 30.2 73 -5.1 22.7
06:10 1017 30.03 846 24.98 -1 30.3 75 -4.9 23.2
06:15 1017 30.03 846 24.98 -1 30.1 74 -5.1 22.8
06:20 1017 30.03 846 24.98 -1 30.2 73 -5.3 22.4
06:25 1017 30.03 846 24.98 -0.9 30.3 74 -5.1 22.9
06:30 1017 30.03 846 24.98 -1 30.3 72 -5.3 22.4
06:35 1017 30.03 847 25.01 -0.9 30.3 74 -5.1 22.9
06:40 1017 30.03 847 25.01 -0.9 30.4 73 -5.1 22.8
06:45 1018 30.06 847 25.01 -0.9 30.4 72 -5.4 22.3
06:50 1018 30.06 847 25.01 -1.1 30.1 72 -5.5 22
06:55 1018 30.06 847 25.01 -1.2 29.9 72 -5.7 21.8
07:00 1018 30.06 847 25.01 -1.1 29.9 71 -5.8 21.5
07:05 1018 30.06 847 25.01 -1.1 30 71 -5.7 21.7
07:10 1018 30.06 847 25.01 -1.1 30 70 -5.9 21.4
07:15 1018 30.06 847 25.01 -0.9 30.4 69 -6 21.3
07:20 1018 30.06 847 25.01 -0.9 30.4 68 -6 21.3
07:25 1018 30.06 847 25.01 -0.9 30.5 69 -5.9 21.4
07:30 1018 30.06 847 25.01 -0.9 30.4 69 -5.9 21.3
07:35 1018 30.06 848 25.04 -0.8 30.5 69 -5.9 21.3
07:40 1018 30.06 848 25.04 -0.8 30.6 69 -5.8 21.6
07:45 1018 30.06 848 25.04 -0.7 30.7 69 -5.6 21.9
07:50 1019 30.09 848 25.04 -0.7 30.7 70 -5.6 21.9
07:55 1019 30.09 848 25.04 -0.7 30.7 71 -5.4 22.3
08:00 1019 30.09 848 25.04 -0.7 30.7 70 -5.5 22.1
08:05 1019 30.09 848 25.04 -0.8 30.6 71 -5.3 22.4
08:10 1019 30.09 848 25.04 -0.8 30.6 72 -5.3 22.5
08:15 1019 30.09 848 25.04 -0.8 30.6 71 -5.5 22.1
08:20 1019 30.09 848 25.04 -0.9 30.5 71 -5.4 22.2
08:25 1019 30.09 848 25.04 -0.9 30.4 71 -5.4 22.2
08:30 1019 30.09 848 25.04 -0.8 30.5 72 -5.3 22.5
08:35 1019 30.09 849 25.07 -0.8 30.5 71 -5.4 22.3
08:40 1019 30.09 849 25.07 -0.8 30.5 72 -5.4 22.4
08:45 1019 30.09 849 25.07 -0.8 30.6 71 -5.4 22.3
08:50 1019 30.09 849 25.07 -0.7 30.7 71 -5.3 22.4
08:55 1019 30.09 849 25.07 -0.7 30.8 71 -5.3 22.4
09:00 1019 30.09 849 25.07 -0.6 31 71 -5.3 22.5
09:05 1020 30.12 849 25.07 -0.5 31.1 71 -5.2 22.7
09:10 1020 30.12 849 25.07 -0.5 31.1 71 -5.2 22.7
09:15 1020 30.12 849 25.07 -0.4 31.2 71 -5 22.9
09:20 1020 30.12 849 25.07 -0.3 31.4 71 -4.9 23.1
09:25 1020 30.12 849 25.07 -0.4 31.4 73 -4.6 23.6
09:30 1020 30.12 849 25.07 -0.3 31.5 72 -4.7 23.6
09:35 1020 30.12 849 25.07 -0.4 31.2 73 -4.8 23.4
09:40 1020 30.12 849 25.07 -0.4 31.2 73 -4.7 23.6
09:45 1020 30.12 849 25.07 -0.4 31.3 73 -4.7 23.5
09:50 1020 30.12 850 25.1 -0.2 31.6 72 -4.7 23.5
09:55 1021 30.15 850 25.1 0.1 32.1 71 -4.5 23.9
10:00 1021 30.15 850 25.1 0.2 32.3 72 -4.3 24.3
10:05 1021 30.15 850 25.1 0.2 32.3 73 -4 24.7
10:10 1021 30.15 850 25.1 -0.3 31.4 81 -3.2 26.2
10:15 1021 30.15 850 25.1 -0.8 30.7 84 -3.2 26.2
10:20 1021 30.15 850 25.1 -0.6 30.9 82 -3.3 26.1
10:25 1021 30.15 850 25.1 -0.4 31.3 82 -3.2 26.3
10:30 1021 30.15 850 25.1 -0.3 31.4 79 -3.5 25.7
10:35 1021 30.15 850 25.1 0 32 77 -3.5 25.6
10:40 1021 30.15 850 25.1 0.3 32.6 76 -3.5 25.7
10:45 1021 30.15 850 25.1 0.4 32.7 73 -3.8 25.1
10:50 1021 30.15 850 25.1 0.4 32.7 71 -4.3 24.3
10:55 1021 30.15 850 25.1 0.6 33.1 67 -4.7 23.5
11:00 1021 30.15 850 25.1 0.8 33.5 68 -4.4 24
11:05 1021 30.15 850 25.1 0.9 33.6 65 -4.9 23.2
11:10 1021 30.15 850 25.1 0.9 33.6 64 -5.2 22.6
11:15 1021 30.15 850 25.1 0.7 33.3 66 -4.9 23.2
11:20 1021 30.15 850 25.1 0.6 33 68 -4.7 23.5
11:25 1021 30.15 850 25.1 1.1 34 67 -4.4 24
11:30 1021 30.15 850 25.1 0.8 33.5 70 -4.1 24.7
11:35 1021 30.15 850 25.1 0.5 33 71 -4.2 24.4
11:40 1021 30.15 850 25.1 0.5 32.9 71 -4.1 24.7
11:45 1021 30.15 850 25.1 0.6 33.1 70 -4.3 24.3
11:50 1021 30.15 850 25.1 0.9 33.6 68 -4.5 24
11:55 1021 30.15 850 25.1 0.8 33.5 69 -4.3 24.3
12:00 1021 30.15 850 25.1 1.1 34 69 -4 24.8
12:05 1021 30.15 850 25.1 1.5 34.7 66 -4.2 24.4
12:10 1021 30.15 850 25.1 1.6 34.9 65 -4.3 24.3
12:15 1021 30.15 850 25.1 2.1 35.7 63 -4.2 24.4
12:20 1021 30.15 850 25.1 2.8 37 60 -4.2 24.4
12:25 1021 30.15 850 25.1 2.6 36.7 60 -4.4 24.1
12:30 1021 30.15 850 25.1 2 35.5 59 -5.1 22.7
12:35 1021 30.15 850 25.1 1.7 35.1 60 -5.2 22.6
12:40 1021 30.15 850 25.1 2.1 35.8 58 -5.3 22.4
12:45 1020 30.12 850 25.1 2.4 36.3 58 -5 23
12:50 1020 30.12 850 25.1 2.5 36.4 57 -5.1 22.8
12:55 1020 30.12 850 25.1 2.5 36.6 58 -5 23
13:00 1020 30.12 850 25.1 2.5 36.6 60 -4.4 24
13:05 1020 30.12 850 25.1 2.7 36.9 57 -5 23
13:10 1020 30.12 849 25.07 3.1 37.6 54 -5.2 22.6
13:15 1020 30.12 849 25.07 3.4 38.2 52 -5.5 22.1
13:20 1020 30.12 849 25.07 3.4 38.1 52 -5.6 21.8
13:25 1020 30.12 849 25.07 3.5 38.4 52 -5.3 22.4
13:30 1020 30.12 849 25.07 3.8 38.8 49 -5.9 21.4
13:35 1020 30.12 849 25.07 4.2 39.5 50 -5.4 22.3
13:40 1020 30.12 849 25.07 3.7 38.7 52 -5.2 22.6
13:45 1020 30.12 849 25.07 3.2 37.8 51 -6 21.3
13:50 1020 30.12 849 25.07 3.4 38.1 49 -6.2 20.8
13:55 1020 30.12 849 25.07 3.4 38.1 50 -6.1 21
14:00 1020 30.12 849 25.07 3.8 38.9 48 -6.2 20.8
14:05 1020 30.12 849 25.07 4.1 39.3 48 -6 21.1
14:10 1020 30.12 849 25.07 4.2 39.5 48 -5.8 21.6
14:15 1020 30.12 849 25.07 4.4 39.9 48 -5.8 21.6
14:20 1020 30.12 849 25.07 4.8 40.7 44 -6.4 20.4
14:25 1020 30.12 849 25.07 4.9 40.9 43 -6.6 20.1
14:30 1020 30.12 849 25.07 4.9 40.8 43 -6.6 20.2
14:35 1020 30.12 849 25.07 5 41 41 -7.3 18.9
14:40 1020 30.12 849 25.07 5.4 41.6 40 -7.3 18.9
14:45 1019 30.09 849 25.07 5.4 41.7 40 -7.2 19.1
14:50 1019 30.09 849 25.07 5 40.9 42 -6.9 19.6
14:55 1019 30.09 849 25.07 4.9 40.9 38 -8.3 17
15:00 1019 30.09 848 25.04 5.1 41.2 38 -8.2 17.3
15:05 1019 30.09 848 25.04 5.1 41.1 38 -8.1 17.5
15:10 1019 30.09 848 25.04 5.2 41.3 40 -7.4 18.7
15:15 1019 30.09 848 25.04 4.9 40.8 40 -7.7 18.1
15:20 1019 30.09 848 25.04 4.6 40.3 41 -7.5 18.5
15:25 1019 30.09 848 25.04 4.5 40.1 42 -7.4 18.7
15:30 1019 30.09 848 25.04 4.2 39.6 45 -6.6 20
15:35 1019 30.09 848 25.04 4.2 39.5 45 -6.8 19.8
15:40 1019 30.09 848 25.04 4.1 39.4 45 -6.7 19.9
15:45 1019 30.09 848 25.04 4.2 39.6 42 -7.6 18.2
15:50 1019 30.09 848 25.04 4.2 39.5 43 -7.2 19
15:55 1019 30.09 848 25.04 3.9 39 46 -6.7 20
16:00 1019 30.09 848 25.04 3.7 38.7 45 -7.1 19.3
16:05 1019 30.09 848 25.04 3.2 37.8 48 -6.8 19.8
16:10 1019 30.09 848 25.04 2.9 37.2 47 -7.2 19
16:15 1019 30.09 848 25.04 2.7 36.8 47 -7.5 18.6
16:20 1019 30.09 848 25.04 2.5 36.5 50 -6.9 19.7
16:25 1019 30.09 848 25.04 2.1 35.9 52 -6.7 19.9
16:30 1019 30.09 848 25.04 2.2 35.9 52 -6.8 19.8
16:35 1019 30.09 848 25.04 2.3 36.1 51 -7 19.5
16:40 1019 30.09 848 25.04 2.3 36.2 50 -7.1 19.2
16:45 1019 30.09 848 25.04 1.9 35.4 52 -6.9 19.6
16:50 1019 30.09 848 25.04 2.1 35.8 52 -6.8 19.7
16:55 1019 30.09 848 25.04 2 35.6 53 -6.6 20.2
17:00 1019 30.09 848 25.04 1.9 35.4 54 -6.6 20.2
17:05 1019 30.09 848 25.04 1.8 35.3 53 -6.8 19.8
17:10 1019 30.09 848 25.04 2 35.6 52 -6.9 19.6
17:15 1019 30.09 848 25.04 2.2 35.9 53 -6.6 20.2
17:20 1019 30.09 848 25.04 2.2 35.9 53 -6.5 20.3
17:25 1019 30.09 848 25.04 2.1 35.8 52 -6.7 20
17:30 1019 30.09 848 25.04 2.1 35.7 54 -6.2 20.8
17:35 1019 30.09 848 25.04 2 35.7 54 -6.3 20.7
17:40 1019 30.09 848 25.04 2 35.6 54 -6.4 20.5
17:45 1019 30.09 848 25.04 2 35.6 53 -6.7 20
17:50 1019 30.09 848 25.04 2 35.6 53 -6.7 20
17:55 1019 30.09 848 25.04 2 35.6 53 -6.6 20.1
18:00 1019 30.09 848 25.04 2 35.7 53 -6.6 20.1
18:05 1019 30.09 848 25.04 2 35.6 53 -6.7 19.9
18:10 1019 30.09 848 25.04 2 35.6 52 -6.9 19.6
18:15 1019 30.09 848 25.04 2 35.5 52 -6.8 19.8
18:20 1019 30.09 848 25.04 2 35.6 52 -6.8 19.7
18:25 1019 30.09 848 25.04 1.9 35.5 54 -6.5 20.3
18:30 1019 30.09 848 25.04 1.9 35.3 54 -6.5 20.2
18:35 1019 30.09 848 25.04 1.8 35.3 51 -7.2 19
18:40 1019 30.09 848 25.04 1.8 35.2 52 -7.1 19.3
18:45 1019 30.09 848 25.04 1.9 35.4 50 -7.6 18.4
18:50 1019 30.09 848 25.04 1.8 35.3 51 -7.4 18.7
18:55 1019 30.09 848 25.04 2 35.6 51 -7.2 19
19:00 1019 30.09 848 25.04 2 35.5 56 -5.9 21.4
19:05 1019 30.09 848 25.04 1.8 35.2 57 -5.8 21.6
19:10 1019 30.09 848 25.04 1.7 35 59 -5.5 22.1
19:15 1019 30.09 848 25.04 1.3 34.4 60 -5.6 21.9
19:20 1019 30.09 848 25.04 1.2 34.2 61 -5.6 22
19:25 1019 30.09 848 25.04 1 33.7 65 -5 23
19:30 1019 30.09 848 25.04 0.8 33.4 67 -4.6 23.6
19:35 1019 30.09 848 25.04 0.8 33.5 68 -4.3 24.2
19:40 1019 30.09 848 25.04 0.8 33.4 69 -4.3 24.3
19:45 1019 30.09 848 25.04 0.7 33.2 71 -4.1 24.6
19:50 1019 30.09 848 25.04 0.8 33.5 66 -4.8 23.3
19:55 1019 30.09 848 25.04 1.2 34.1 64 -4.9 23.2
20:00 1019 30.09 848 25.04 1.3 34.3 65 -4.5 23.9
20:05 1019 30.09 848 25.04 1.4 34.4 64 -4.8 23.4
20:10 1019 30.09 848 25.04 1.6 34.9 63 -4.7 23.6
20:15 1019 30.09 848 25.04 1.7 35.1 63 -4.7 23.5
20:20 1018 30.06 848 25.04 1.9 35.4 59 -5.2 22.6
20:25 1018 30.06 848 25.04 2 35.7 59 -5.1 22.8
20:30 1019 30.09 848 25.04 2.1 35.8 57 -5.5 22.2
20:35 1019 30.09 848 25.04 2.2 36 58 -5.3 22.5
20:40 1019 30.09 848 25.04 2.2 36 57 -5.4 22.2
20:45 1019 30.09 848 25.04 2.2 36 56 -5.7 21.7
20:50 1019 30.09 848 25.04 2 35.5 59 -5.1 22.8
20:55 1019 30.09 848 25.04 1.9 35.5 59 -5.3 22.5
21:00 1019 30.09 848 25.04 1.9 35.4 60 -5.1 22.8
21:05 1019 30.09 848 25.04 1.8 35.3 59 -5.3 22.4
21:10 1019 30.09 848 25.04 1.8 35.2 59 -5.5 22.2
21:15 1019 30.09 848 25.04 1.8 35.2 59 -5.4 22.3
21:20 1019 30.09 848 25.04 1.8 35.2 59 -5.5 22.1
21:25 1019 30.09 848 25.04 1.8 35.3 58 -5.7 21.8
21:30 1019 30.09 848 25.04 1.8 35.3 58 -5.6 21.9
21:35 1019 30.09 848 25.04 1.8 35.3 57 -5.8 21.6
21:40 1019 30.09 848 25.04 1.9 35.3 58 -5.6 21.9
21:45 1019 30.09 848 25.04 1.9 35.4 57 -5.8 21.6
21:50 1019 30.09 848 25.04 2 35.5 56 -5.9 21.3
21:55 1019 30.09 848 25.04 2 35.7 55 -6 21.2
22:00 1019 30.09 848 25.04 2 35.7 56 -5.9 21.5
22:05 1019 30.09 848 25.04 2 35.6 57 -5.7 21.7
22:10 1019 30.09 848 25.04 2 35.6 57 -5.6 21.9
22:15 1019 30.09 848 25.04 2 35.5 58 -5.5 22.2
22:20 1019 30.09 848 25.04 1.8 35.3 58 -5.6 21.9
22:25 1019 30.09 848 25.04 1.8 35.3 58 -5.7 21.8
22:30 1019 30.09 848 25.04 1.8 35.3 58 -5.6 21.9
22:35 1019 30.09 848 25.04 1.9 35.4 59 -5.4 22.3
22:40 1019 30.09 848 25.04 1.8 35.2 59 -5.4 22.3
22:45 1019 30.09 848 25.04 1.7 35.1 59 -5.5 22.1
22:50 1019 30.09 848 25.04 1.7 35.1 59 -5.4 22.2
22:55 1019 30.09 848 25.04 1.7 35 59 -5.5 22.2
23:00 1019 30.09 848 25.04 1.7 35 59 -5.4 22.2
23:05 1019 30.09 848 25.04 1.7 35.1 59 -5.4 22.3
23:10 1019 30.09 848 25.04 1.6 34.9 60 -5.2 22.6
23:15 1019 30.09 848 25.04 1.5 34.8 61 -5.2 22.7
23:20 1019 30.09 848 25.04 1.5 34.7 61 -5.1 22.7
23:25 1019 30.09 848 25.04 1.4 34.6 61 -5.2 22.6
23:30 1019 30.09 848 25.04 1.4 34.6 61 -5.2 22.6
23:35 1019 30.09 848 25.04 1.4 34.5 62 -5.1 22.9
23:40 1019 30.09 848 25.04 1.3 34.4 62 -5.2 22.6
23:45 1019 30.09 848 25.04 1.3 34.4 63 -5 23
23:50 1019 30.09 849 25.07 1.3 34.4 64 -4.6 23.7
23:55 1019 30.09 849 25.07 1.3 34.3 65 -4.5 23.8
24:00 1019 30.09 849 25.07 1.3 34.4 65 -4.5 23.8